createdAt,value
2023-03-11T00:01:11.853Z,0.97
2023-03-11T00:03:40.650Z,1.17
2023-03-11T00:06:10.560Z,1.50
2023-03-11T00:08:39.069Z,0.97
2023-03-11T00:11:10.477Z,1.00
2023-03-11T00:13:40.883Z,1.30
2023-03-11T00:16:09.348Z,0.70
2023-03-11T00:18:37.784Z,0.93
2023-03-11T00:21:06.781Z,1.17
2023-03-11T00:23:37.850Z,1.00
2023-03-11T00:26:06.356Z,1.27
2023-03-11T00:28:34.966Z,0.90
2023-03-11T00:31:05.294Z,1.40
2023-03-11T00:33:33.921Z,1.00
2023-03-11T00:36:02.341Z,1.10
2023-03-11T00:38:31.069Z,1.17
2023-03-11T00:41:02.270Z,1.23
2023-03-11T00:43:34.284Z,1.00
2023-03-11T00:46:04.950Z,0.83
2023-03-11T00:48:33.604Z,1.10
2023-03-11T00:51:02.336Z,1.20
2023-03-11T00:53:30.865Z,1.20
2023-03-11T00:56:01.447Z,1.33
2023-03-11T00:58:30.834Z,1.00
2023-03-11T01:00:59.334Z,1.17
2023-03-11T01:03:27.868Z,1.17
2023-03-11T01:05:56.208Z,1.20
2023-03-11T01:08:27.088Z,1.30
2023-03-11T01:10:56.581Z,1.00
2023-03-11T01:13:27.548Z,1.10
2023-03-11T01:15:57.595Z,1.27
2023-03-11T01:18:27.218Z,0.90
2023-03-11T01:20:59.068Z,1.00
2023-03-11T01:23:27.917Z,0.77
2023-03-11T01:25:56.379Z,1.00
2023-03-11T01:28:29.591Z,0.83
2023-03-11T01:31:02.180Z,0.87
2023-03-11T01:33:32.015Z,0.93
2023-03-11T01:36:01.089Z,1.20
2023-03-11T01:38:29.914Z,1.03
2023-03-11T01:40:58.777Z,1.00
2023-03-11T01:43:49.402Z,1.00
2023-03-11T01:46:26.451Z,1.10
2023-03-11T01:48:59.674Z,1.10
2023-03-11T01:51:38.304Z,0.73
2023-03-11T01:54:12.745Z,1.13
2023-03-11T01:56:44.053Z,1.00
2023-03-11T01:59:20.341Z,0.90
2023-03-11T02:02:06.132Z,1.07
2023-03-11T02:04:37.208Z,1.07
2023-03-11T02:07:08.275Z,1.00
2023-03-11T02:09:37.084Z,1.00
2023-03-11T02:12:07.913Z,0.93
2023-03-11T02:14:40.984Z,1.13
2023-03-11T02:17:10.301Z,0.70
2023-03-11T02:19:58.453Z,0.83
2023-03-11T02:22:29.991Z,1.30
2023-03-11T02:25:06.842Z,0.90
2023-03-11T02:27:45.107Z,1.40
2023-03-11T02:30:16.671Z,1.20
2023-03-11T02:32:48.649Z,0.90
2023-03-11T02:35:18.947Z,0.87
2023-03-11T02:37:49.737Z,0.73
2023-03-11T02:40:48.581Z,0.70
2023-03-11T02:43:27.762Z,1.10
2023-03-11T02:45:57.733Z,0.83
2023-03-11T02:48:27.337Z,0.90
2023-03-11T02:50:55.962Z,0.67
2023-03-11T02:53:35.936Z,1.13
2023-03-11T02:56:08.047Z,1.00
2023-03-11T02:58:38.361Z,0.93
2023-03-11T03:01:07.052Z,0.90
2023-03-11T03:03:36.000Z,0.90
2023-03-11T03:06:05.060Z,0.83
2023-03-11T03:08:33.434Z,1.00
2023-03-11T03:11:04.610Z,0.73
2023-03-11T03:13:33.202Z,1.10
2023-03-11T03:16:04.353Z,0.77
2023-03-11T03:18:34.168Z,0.80
2023-03-11T03:21:02.573Z,1.03
2023-03-11T03:23:35.338Z,0.73
2023-03-11T03:26:04.678Z,1.10
2023-03-11T03:28:34.797Z,0.60
2023-03-11T03:31:10.308Z,1.17
2023-03-11T03:33:40.367Z,0.63
2023-03-11T03:36:12.945Z,1.30
2023-03-11T03:38:48.077Z,0.90
2023-03-11T03:41:17.278Z,0.50
2023-03-11T03:43:46.434Z,1.10
2023-03-11T03:46:16.395Z,0.90
2023-03-11T03:48:48.737Z,0.70
2023-03-11T03:51:18.830Z,0.70
2023-03-11T03:54:00.620Z,0.90
2023-03-11T03:56:29.114Z,1.00
2023-03-11T03:58:58.186Z,0.70
2023-03-11T04:01:32.545Z,0.50
2023-03-11T04:04:02.262Z,1.10
2023-03-11T04:06:31.212Z,0.63
2023-03-11T04:09:04.219Z,1.13
2023-03-11T04:11:35.618Z,0.60
2023-03-11T04:14:06.320Z,0.60
2023-03-11T04:16:41.005Z,0.80
2023-03-11T04:19:13.754Z,0.80
2023-03-11T04:21:42.308Z,0.90
2023-03-11T04:24:10.834Z,1.00
2023-03-11T04:26:40.937Z,0.77
2023-03-11T04:29:15.513Z,0.93
2023-03-11T04:31:51.078Z,0.97
2023-03-11T04:34:19.954Z,0.60
2023-03-11T04:36:48.629Z,0.63
2023-03-11T04:39:18.580Z,0.70
2023-03-11T04:41:48.220Z,0.80
2023-03-11T04:44:20.744Z,1.03
2023-03-11T04:46:52.636Z,1.03
2023-03-11T04:49:21.052Z,0.60
2023-03-11T04:51:51.239Z,0.73
2023-03-11T04:54:22.194Z,0.50
2023-03-11T04:56:51.002Z,0.70
2023-03-11T04:59:19.561Z,1.27
2023-03-11T05:01:49.408Z,0.73
2023-03-11T05:04:19.540Z,1.17
2023-03-11T05:06:50.898Z,0.93
2023-03-11T05:09:19.756Z,0.90
2023-03-11T05:11:48.568Z,1.17
2023-03-11T05:14:19.887Z,0.83
2023-03-11T05:16:48.482Z,0.77
2023-03-11T05:19:32.334Z,1.10
2023-03-11T05:22:06.935Z,0.70
2023-03-11T05:24:35.861Z,0.70
2023-03-11T05:27:05.983Z,0.57
2023-03-11T05:29:35.657Z,0.97
2023-03-11T05:32:04.366Z,0.53
2023-03-11T05:34:33.212Z,0.90
2023-03-11T05:37:03.367Z,0.87
2023-03-11T05:39:34.000Z,0.80
2023-03-11T05:42:02.878Z,0.80
2023-03-11T05:44:31.505Z,1.00
2023-03-11T05:47:00.082Z,0.93
2023-03-11T05:49:29.504Z,0.93
2023-03-11T05:51:58.896Z,0.80
2023-03-11T05:54:29.038Z,0.77
2023-03-11T05:56:59.155Z,0.70
2023-03-11T05:59:27.799Z,1.10
2023-03-11T06:02:00.744Z,0.80
2023-03-11T06:04:31.739Z,1.23
2023-03-11T06:07:02.155Z,0.83
2023-03-11T06:09:36.864Z,0.70
2023-03-11T06:12:09.534Z,0.70
2023-03-11T06:14:50.699Z,0.73
2023-03-11T06:17:19.148Z,0.90
2023-03-11T06:19:47.608Z,0.93
2023-03-11T06:22:17.020Z,1.07
2023-03-11T06:24:46.065Z,0.80
2023-03-11T06:27:16.021Z,0.87
2023-03-11T06:29:44.708Z,1.10
2023-03-11T06:32:13.649Z,0.80
2023-03-11T06:34:42.045Z,1.10
2023-03-11T06:37:11.137Z,1.10
2023-03-11T06:39:41.830Z,0.97
2023-03-11T06:42:13.124Z,0.70
2023-03-11T06:44:44.927Z,0.90
2023-03-11T06:47:13.875Z,1.33
2023-03-11T06:49:43.002Z,1.20
2023-03-11T06:52:15.266Z,0.50
2023-03-11T06:54:56.048Z,0.70
2023-03-11T06:57:33.287Z,0.67
2023-03-11T07:00:11.835Z,1.00
2023-03-11T07:02:43.512Z,1.03
2023-03-11T07:05:14.934Z,0.90
2023-03-11T07:07:45.852Z,1.17
2023-03-11T07:10:14.522Z,1.20
2023-03-11T07:12:48.250Z,0.80
2023-03-11T07:15:24.078Z,0.90
2023-03-11T07:22:30.589Z,1.00
2023-03-11T07:24:59.476Z,1.37
2023-03-11T07:27:35.999Z,0.90
2023-03-11T07:30:13.337Z,0.70
2023-03-11T07:32:46.739Z,1.17
2023-03-11T07:35:16.388Z,1.27
2023-03-11T07:37:44.863Z,0.90
2023-03-11T07:40:14.940Z,1.20
2023-03-11T07:42:49.348Z,1.13
2023-03-11T07:45:21.247Z,1.60
2023-03-11T07:47:51.174Z,1.07
2023-03-11T07:50:22.603Z,0.97
2023-03-11T07:52:56.561Z,0.93
2023-03-11T07:55:25.071Z,1.17
2023-03-11T07:57:54.024Z,1.23
2023-03-11T08:00:23.359Z,1.50
2023-03-11T08:02:53.567Z,0.90
2023-03-11T08:05:24.026Z,1.07
2023-03-11T08:07:53.527Z,0.97
2023-03-11T08:10:21.961Z,1.10
2023-03-11T08:12:50.332Z,1.10
2023-03-11T08:15:21.147Z,0.80
2023-03-11T08:17:49.684Z,0.83
2023-03-11T08:20:20.118Z,0.80
2023-03-11T08:22:57.611Z,1.20
2023-03-11T08:25:27.505Z,1.00
2023-03-11T08:27:56.473Z,1.10
2023-03-11T08:30:25.937Z,0.70
2023-03-11T08:32:58.357Z,1.07
2023-03-11T08:35:36.097Z,0.83
2023-03-11T08:38:04.760Z,1.00
2023-03-11T08:40:33.348Z,1.20
2023-03-11T08:43:01.913Z,1.00
2023-03-11T08:45:30.416Z,1.03
2023-03-11T08:48:03.040Z,0.93
2023-03-11T08:50:34.909Z,1.10
2023-03-11T08:53:13.661Z,1.03
2023-03-11T08:55:56.153Z,0.83
2023-03-11T08:58:29.325Z,0.97
2023-03-11T09:01:06.990Z,0.67
2023-03-11T09:03:36.969Z,1.10
2023-03-11T09:06:28.975Z,0.80
2023-03-11T09:08:59.328Z,1.00
2023-03-11T09:11:28.335Z,0.77
2023-03-11T09:13:56.952Z,1.00
2023-03-11T09:16:27.900Z,0.83
2023-03-11T09:18:56.779Z,0.77
2023-03-11T09:21:32.748Z,0.90
2023-03-11T09:24:06.182Z,0.80
2023-03-11T09:26:37.113Z,0.90
2023-03-11T09:29:07.953Z,0.97
2023-03-11T09:31:40.301Z,0.90
2023-03-11T09:34:10.398Z,0.90
2023-03-11T09:36:43.592Z,0.90
2023-03-11T09:39:34.089Z,1.00
2023-03-11T09:42:20.005Z,0.90
2023-03-11T09:45:00.767Z,0.90
2023-03-11T09:47:46.123Z,0.80
2023-03-11T09:50:27.656Z,0.93
2023-03-11T09:53:11.821Z,0.83
2023-03-11T09:55:47.792Z,0.70
2023-03-11T09:58:38.826Z,1.03
2023-03-11T10:01:29.358Z,0.83
2023-03-11T10:04:05.821Z,1.00
2023-03-11T10:06:34.464Z,0.90
2023-03-11T10:09:20.575Z,1.03
2023-03-11T10:12:07.517Z,0.90
2023-03-11T10:14:56.500Z,1.20
2023-03-11T10:18:01.578Z,0.80
2023-03-11T10:20:41.314Z,0.87
2023-03-11T10:23:23.451Z,0.90
2023-03-11T10:26:02.921Z,0.47
2023-03-11T10:28:37.878Z,0.60
2023-03-11T10:31:23.386Z,1.00
2023-03-11T10:33:57.539Z,0.93
2023-03-11T10:36:35.280Z,0.73
2023-03-11T10:39:05.627Z,0.80
2023-03-11T10:41:45.607Z,0.93
2023-03-11T10:44:21.757Z,0.70
2023-03-11T10:46:53.292Z,0.63
2023-03-11T10:49:21.978Z,0.50
2023-03-11T10:51:53.477Z,1.03
2023-03-11T10:54:27.967Z,1.00
2023-03-11T10:56:59.150Z,0.60
2023-03-11T10:59:32.630Z,0.70
2023-03-11T11:02:03.463Z,1.10
2023-03-11T11:04:42.406Z,1.10
2023-03-11T11:07:36.592Z,0.73
2023-03-11T11:10:22.328Z,0.53
2023-03-11T11:12:56.946Z,0.80
2023-03-11T11:15:31.647Z,0.90
2023-03-11T11:18:04.023Z,0.80
2023-03-11T11:20:35.374Z,0.77
2023-03-11T11:23:05.197Z,1.17
2023-03-11T11:25:38.184Z,1.00
2023-03-11T11:28:21.499Z,0.47
2023-03-11T11:30:59.697Z,0.70
2023-03-11T11:33:31.678Z,0.80
2023-03-11T11:36:04.806Z,0.60
2023-03-11T11:38:34.695Z,0.70
2023-03-11T11:41:10.334Z,1.20
2023-03-11T11:43:51.045Z,0.80
2023-03-11T11:46:30.154Z,1.00
2023-03-11T11:49:20.383Z,1.10
2023-03-11T11:51:59.113Z,0.60
2023-03-11T11:54:34.541Z,0.67
2023-03-11T11:57:12.477Z,0.53
2023-03-11T11:59:41.547Z,0.63
2023-03-11T12:02:34.518Z,1.17
2023-03-11T12:05:13.834Z,0.53
2023-03-11T12:08:06.673Z,0.80
2023-03-11T12:10:43.776Z,0.80
2023-03-11T12:13:55.670Z,0.87
2023-03-11T12:16:42.067Z,0.77
2023-03-11T12:19:25.654Z,0.65
2023-03-11T12:22:44.737Z,0.95
2023-03-11T12:25:33.424Z,0.60
2023-03-11T12:28:13.469Z,0.70
2023-03-11T12:30:47.229Z,1.20
2023-03-11T12:33:21.619Z,0.88
2023-03-11T12:35:56.510Z,0.47
2023-03-11T12:38:33.913Z,0.63
2023-03-11T12:41:06.778Z,0.60
2023-03-11T12:44:27.163Z,0.80
2023-03-11T12:47:24.403Z,0.80
2023-03-11T12:49:55.266Z,0.98
2023-03-11T12:52:29.136Z,0.80
2023-03-11T12:55:37.138Z,0.90
2023-03-11T12:58:51.726Z,0.73
2023-03-11T13:01:43.853Z,1.10
2023-03-11T13:04:52.361Z,0.80
2023-03-11T13:07:49.200Z,0.70
2023-03-11T13:10:37.173Z,0.63
2023-03-11T13:13:46.976Z,0.77
2023-03-11T13:16:42.650Z,0.80
2023-03-11T13:19:38.291Z,0.47
2023-03-11T13:22:45.341Z,0.55
2023-03-11T13:25:39.503Z,0.50
2023-03-11T13:28:42.082Z,0.52
2023-03-11T13:31:38.671Z,1.02
2023-03-11T13:34:17.534Z,0.75
2023-03-11T13:37:10.725Z,1.10
2023-03-11T13:39:56.054Z,1.00
2023-03-11T13:42:33.641Z,0.70
2023-03-11T13:45:05.507Z,0.80
2023-03-11T13:47:39.472Z,1.00
2023-03-11T13:50:20.269Z,0.82
2023-03-11T13:52:53.496Z,0.93
2023-03-11T13:55:36.659Z,1.10
2023-03-11T13:58:17.909Z,0.70
2023-03-11T14:00:51.006Z,1.00
2023-03-11T14:03:23.110Z,0.93
2023-03-11T14:06:02.342Z,0.50
2023-03-11T14:08:35.038Z,0.80
2023-03-11T14:11:17.045Z,0.90
2023-03-11T14:13:47.608Z,0.60
2023-03-11T14:16:21.126Z,0.40
2023-03-11T14:19:03.828Z,0.77
2023-03-11T14:21:32.624Z,0.88
2023-03-11T14:24:01.511Z,0.77
2023-03-11T14:26:35.916Z,0.65
2023-03-11T14:29:12.424Z,0.95
2023-03-11T14:31:44.161Z,0.85
2023-03-11T14:34:18.494Z,1.08
2023-03-11T14:36:50.813Z,1.10
2023-03-11T14:39:29.796Z,0.88
2023-03-11T14:42:07.458Z,1.10
2023-03-11T14:44:41.672Z,1.10
2023-03-11T14:47:23.716Z,1.10
2023-03-11T14:49:54.749Z,0.75
2023-03-11T14:52:34.457Z,0.52
2023-03-11T14:55:05.474Z,0.55
2023-03-11T14:57:42.058Z,0.68
2023-03-11T15:00:19.340Z,0.45
2023-03-11T15:03:02.481Z,0.60
2023-03-11T15:05:43.445Z,0.65
2023-03-11T15:08:11.946Z,0.40
2023-03-11T15:10:40.270Z,0.40
2023-03-11T15:13:16.452Z,0.60
2023-03-11T15:15:46.026Z,1.20
2023-03-11T15:18:25.577Z,0.80
2023-03-11T15:21:15.959Z,1.10
2023-03-11T15:23:48.284Z,0.55
2023-03-11T15:26:23.260Z,0.65
2023-03-11T15:28:59.178Z,0.65
2023-03-11T15:31:35.652Z,0.70
2023-03-11T15:34:25.770Z,0.88
2023-03-11T15:37:06.288Z,0.88
2023-03-11T15:39:47.737Z,0.65
2023-03-11T15:42:22.845Z,0.85
2023-03-11T15:45:08.975Z,0.77
2023-03-11T15:47:38.687Z,0.52
2023-03-11T15:50:26.323Z,0.45
2023-03-11T15:52:58.480Z,0.75
2023-03-11T15:55:28.846Z,0.82
2023-03-11T15:58:07.726Z,0.90
2023-03-11T16:00:38.794Z,0.90
2023-03-11T16:03:07.001Z,0.63
2023-03-11T16:05:35.181Z,0.68
2023-03-11T16:08:03.379Z,0.70
2023-03-11T16:10:31.790Z,0.90
2023-03-11T16:13:00.095Z,0.70
2023-03-11T16:15:32.102Z,0.73
2023-03-11T16:18:04.972Z,0.90
2023-03-11T16:20:54.051Z,0.80
2023-03-11T16:23:48.559Z,0.88
2023-03-11T16:26:23.532Z,0.50
2023-03-11T16:29:06.190Z,1.10
2023-03-11T16:31:42.709Z,0.70
2023-03-11T16:34:18.165Z,0.80
2023-03-11T16:36:46.659Z,0.67
2023-03-11T16:39:15.274Z,0.95
2023-03-11T16:41:54.268Z,0.60
2023-03-11T16:44:24.134Z,0.68
2023-03-11T16:46:56.182Z,0.90
2023-03-11T16:49:30.987Z,0.80
2023-03-11T16:52:01.183Z,0.97
2023-03-11T16:54:31.108Z,0.53
2023-03-11T16:57:00.886Z,0.77
2023-03-11T16:59:30.367Z,0.97
2023-03-11T17:02:03.186Z,0.70
2023-03-11T17:04:40.528Z,0.87
2023-03-11T17:07:10.714Z,0.88
2023-03-11T17:09:39.387Z,0.90
2023-03-11T17:12:09.039Z,0.70
2023-03-11T17:14:37.650Z,0.83
2023-03-11T17:17:06.948Z,0.77
2023-03-11T17:19:36.515Z,0.80
2023-03-11T17:22:05.435Z,0.77
2023-03-11T17:24:33.893Z,0.97
2023-03-11T17:27:04.109Z,0.77
2023-03-11T17:29:33.685Z,0.97
2023-03-11T17:32:04.076Z,1.07
2023-03-11T17:34:36.119Z,0.80
2023-03-11T17:37:04.406Z,0.80
2023-03-11T17:39:32.657Z,1.03
2023-03-11T17:42:01.026Z,0.90
2023-03-11T17:44:37.913Z,0.60
2023-03-11T17:47:13.006Z,0.90
2023-03-11T17:49:42.543Z,0.90
2023-03-11T17:52:11.248Z,0.90
2023-03-11T17:54:41.685Z,0.80
2023-03-11T17:57:10.081Z,1.00
2023-03-11T17:59:38.322Z,0.63
2023-03-11T18:02:06.927Z,1.07
2023-03-11T18:04:35.261Z,1.00
2023-03-11T18:07:04.905Z,1.10
2023-03-11T18:09:33.089Z,1.03
2023-03-11T18:12:02.523Z,1.20
2023-03-11T18:14:31.005Z,0.90
2023-03-11T18:16:59.585Z,0.90
2023-03-11T18:19:27.844Z,1.40
2023-03-11T18:21:56.039Z,1.40
2023-03-11T18:24:25.669Z,2.10
2023-03-11T18:26:53.844Z,2.70
2023-03-11T18:29:24.292Z,2.33
2023-03-11T18:31:52.656Z,1.90
2023-03-11T18:34:20.949Z,2.10
2023-03-11T18:36:49.351Z,1.30
2023-03-11T18:39:17.849Z,1.73
2023-03-11T18:41:47.543Z,1.77
2023-03-11T18:44:16.143Z,2.07
2023-03-11T18:46:44.545Z,1.60
2023-03-11T18:49:18.253Z,1.20
2023-03-11T18:51:47.910Z,1.50
2023-03-11T18:54:18.980Z,1.40
2023-03-11T18:56:49.703Z,1.27
2023-03-11T18:59:19.190Z,1.30
2023-03-11T19:01:51.151Z,1.33
2023-03-11T19:04:19.472Z,0.97
2023-03-11T19:06:50.053Z,0.93
2023-03-11T19:09:19.725Z,1.30
2023-03-11T19:11:49.636Z,1.60
2023-03-11T19:14:17.843Z,1.33
2023-03-11T19:16:46.160Z,1.10
2023-03-11T19:19:14.635Z,0.73
2023-03-11T19:21:42.907Z,1.10
2023-03-11T19:24:12.547Z,1.00
2023-03-11T19:26:45.086Z,0.97
2023-03-11T19:29:16.033Z,1.23
2023-03-11T19:31:45.273Z,1.27
2023-03-11T19:34:13.706Z,1.20
2023-03-11T19:36:42.108Z,1.50
2023-03-11T19:39:10.508Z,1.27
2023-03-11T19:41:38.729Z,1.10
2023-03-11T19:44:06.945Z,1.00
2023-03-11T19:46:38.604Z,1.00
2023-03-11T19:49:07.390Z,0.87
2023-03-11T19:51:49.664Z,1.30
2023-03-11T19:54:19.245Z,1.00
2023-03-11T19:56:48.046Z,1.93
2023-03-11T19:59:17.043Z,2.07
2023-03-11T20:01:46.705Z,2.30
2023-03-11T20:04:15.136Z,2.00
2023-03-11T20:06:47.308Z,2.10
2023-03-11T20:09:16.349Z,2.53
2023-03-11T20:11:45.606Z,1.80
2023-03-11T20:14:15.882Z,1.90
2023-03-11T20:16:50.201Z,1.87
2023-03-11T20:19:19.950Z,1.63
2023-03-11T20:21:48.536Z,2.30
2023-03-11T20:24:18.115Z,1.83
2023-03-11T20:26:51.281Z,2.60
2023-03-11T20:29:20.091Z,1.87
2023-03-11T20:31:50.266Z,1.70
2023-03-11T20:34:19.880Z,1.80
2023-03-11T20:36:49.114Z,1.63
2023-03-11T20:39:17.490Z,1.87
2023-03-11T20:41:45.848Z,1.17
2023-03-11T20:44:15.345Z,1.53
2023-03-11T20:46:45.025Z,2.10
2023-03-11T20:49:14.779Z,1.87
2023-03-11T20:51:43.772Z,2.20
2023-03-11T20:54:12.376Z,1.97
2023-03-11T20:56:40.698Z,2.30
2023-03-11T20:59:10.575Z,2.47
2023-03-11T21:01:38.823Z,2.30
2023-03-11T21:04:07.475Z,2.20
2023-03-11T21:06:40.842Z,2.10
2023-03-11T21:09:13.851Z,2.23
2023-03-11T21:11:42.544Z,3.27
2023-03-11T21:14:11.906Z,3.67
2023-03-11T21:16:40.244Z,3.10
2023-03-11T21:19:11.588Z,4.23
2023-03-11T21:21:49.041Z,4.37
2023-03-11T21:24:18.985Z,3.77
2023-03-11T21:26:54.769Z,4.23
2023-03-11T21:29:29.570Z,3.83
2023-03-11T21:32:08.186Z,3.30
2023-03-11T21:34:43.907Z,3.07
2023-03-11T21:37:19.344Z,3.03
2023-03-11T21:39:49.669Z,3.40
2023-03-11T21:42:23.848Z,3.40
2023-03-11T21:45:01.047Z,3.17
2023-03-11T21:47:30.510Z,3.27
2023-03-11T21:50:20.397Z,3.10
2023-03-11T21:52:54.615Z,4.23
2023-03-11T21:55:28.653Z,3.33
2023-03-11T21:58:04.937Z,3.43
2023-03-11T22:00:34.396Z,3.30
2023-03-11T22:03:09.063Z,3.33
2023-03-11T22:05:39.868Z,3.30
2023-03-11T22:08:16.798Z,2.87
2023-03-11T22:10:46.388Z,3.43
2023-03-11T22:13:19.650Z,4.40
2023-03-11T22:15:51.941Z,3.87
2023-03-11T22:18:20.251Z,4.30
2023-03-11T22:20:49.950Z,3.93
2023-03-11T22:23:20.038Z,4.30
2023-03-11T22:25:48.214Z,5.23
2023-03-11T22:28:16.413Z,4.47
2023-03-11T22:30:44.615Z,5.37
2023-03-11T22:33:12.819Z,5.50
2023-03-11T22:35:41.444Z,5.27
2023-03-11T22:38:09.627Z,4.87
2023-03-11T22:40:39.302Z,4.87
2023-03-11T22:43:10.064Z,5.43
2023-03-11T22:45:38.329Z,5.03
2023-03-11T22:48:07.284Z,5.57
2023-03-11T22:50:35.527Z,5.53
2023-03-11T22:53:03.696Z,4.93
2023-03-11T22:55:31.914Z,5.33
2023-03-11T22:58:03.083Z,4.97
2023-03-11T23:00:31.298Z,4.80
2023-03-11T23:02:59.579Z,4.90
2023-03-11T23:05:27.862Z,5.00
2023-03-11T23:07:56.297Z,5.17
2023-03-11T23:10:24.744Z,4.90
2023-03-11T23:12:52.862Z,5.90
2023-03-11T23:15:22.577Z,5.47
2023-03-11T23:17:50.813Z,5.33
2023-03-11T23:20:19.377Z,4.97
2023-03-11T23:22:47.556Z,5.63
2023-03-11T23:25:17.346Z,5.03
2023-03-11T23:27:47.360Z,5.17
2023-03-11T23:30:17.742Z,5.00
2023-03-11T23:32:47.442Z,4.60
2023-03-11T23:35:15.729Z,4.87
2023-03-11T23:37:44.040Z,4.97
2023-03-11T23:40:13.571Z,4.17
2023-03-11T23:42:41.735Z,4.53
2023-03-11T23:45:11.942Z,5.13
2023-03-11T23:47:40.150Z,4.63
2023-03-11T23:50:11.640Z,5.60
2023-03-11T23:52:39.968Z,4.77
2023-03-11T23:55:10.162Z,4.63
2023-03-11T23:57:38.747Z,4.93
